Gove Airport


Codes: YPGV/GOV
Name: Gove Airport
City: Nhulunbuy
Country: Australia
Elevation: 192 ft.
Wikipedia:

Photos at Gove Airport


   Photos courtesy of SpottingLog. You can add your own sightings and photos by signing up for a free trial today.



No photos found.

Weather at Gove Airport


Time (UTC)DescriptionTempratureWindCloud coverageVisibilityPressureHumidity
16-Jun-2024 12:00Scattered Clouds25°C13 mph, SE27%10000m1014hPa68%
16-Jun-2024 15:00Few Clouds24°C13 mph, SE19%10000m1015hPa67%
16-Jun-2024 18:00Clear Sky24°C13 mph, SE6%10000m1014hPa67%
16-Jun-2024 21:00Few Clouds25°C16 mph, SE18%10000m1015hPa61%
17-Jun-2024 00:00Few Clouds26°C18 mph, SE12%10000m1016hPa57%
17-Jun-2024 03:00Clear Sky27°C18 mph, SE6%10000m1014hPa56%
17-Jun-2024 06:00Clear Sky26°C16 mph, SE6%10000m1013hPa58%
17-Jun-2024 09:00Clear Sky24°C13 mph, SE5%10000m1014hPa63%
17-Jun-2024 12:00Clear Sky24°C13 mph, SE3%10000m1015hPa63%
17-Jun-2024 15:00Clear Sky24°C13 mph, SE3%10000m1014hPa64%
17-Jun-2024 18:00Clear Sky24°C13 mph, SE2%10000m1014hPa66%
17-Jun-2024 21:00Clear Sky24°C16 mph, SE4%10000m1014hPa64%
18-Jun-2024 00:00Clear Sky26°C13 mph, SE3%10000m1015hPa63%
18-Jun-2024 03:00Clear Sky27°C13 mph, SE0%10000m1014hPa60%
18-Jun-2024 06:00Clear Sky26°C13 mph, SE0%10000m1012hPa61%
18-Jun-2024 09:00Clear Sky24°C13 mph, SE3%10000m1013hPa68%
18-Jun-2024 12:00Clear Sky24°C11 mph, SE2%10000m1014hPa68%
18-Jun-2024 15:00Clear Sky23°C11 mph, SE0%10000m1014hPa71%
18-Jun-2024 18:00Clear Sky23°C9 mph, SE0%10000m1013hPa77%
18-Jun-2024 21:00Few Clouds24°C9 mph, E18%10000m1013hPa78%
19-Jun-2024 00:00Light Rain26°C11 mph, E18%10000m1015hPa70%
19-Jun-2024 03:00Light Rain27°C13 mph, SE21%10000m1013hPa67%
19-Jun-2024 06:00Few Clouds26°C13 mph, SE14%10000m1011hPa69%
19-Jun-2024 09:00Light Rain24°C9 mph, SE34%10000m1012hPa85%
19-Jun-2024 12:00Light Rain24°C13 mph, E66%10000m1014hPa79%
19-Jun-2024 15:00Clear Sky24°C11 mph, SE8%10000m1013hPa79%
19-Jun-2024 18:00Clear Sky23°C11 mph, SE5%10000m1013hPa78%
19-Jun-2024 21:00Few Clouds23°C11 mph, SE14%10000m1014hPa78%
20-Jun-2024 00:00Light Rain25°C16 mph, SE9%10000m1015hPa69%
20-Jun-2024 03:00Scattered Clouds27°C16 mph, SE33%10000m1014hPa65%
20-Jun-2024 06:00Light Rain25°C16 mph, SE35%10000m1012hPa73%
20-Jun-2024 09:00Light Rain24°C13 mph, SE47%10000m1013hPa76%
20-Jun-2024 12:00Scattered Clouds24°C13 mph, SE32%10000m1015hPa72%
20-Jun-2024 15:00Few Clouds24°C11 mph, SE16%10000m1014hPa73%
20-Jun-2024 18:00Few Clouds24°C13 mph, SE11%10000m1013hPa71%
20-Jun-2024 21:00Few Clouds24°C16 mph, SE13%10000m1015hPa70%
21-Jun-2024 00:00Clear Sky26°C16 mph, SE10%10000m1016hPa66%
21-Jun-2024 03:00Broken Clouds26°C18 mph, SE56%10000m1014hPa64%
21-Jun-2024 06:00Light Rain26°C18 mph, SE52%10000m1013hPa67%
21-Jun-2024 09:00Scattered Clouds25°C16 mph, SE38%10000m1014hPa69%